createdAt,value
2018-04-11T00:00:00.615Z,4.33
2018-04-11T00:01:03.916Z,3.60
2018-04-11T00:02:07.978Z,11.43
2018-04-11T00:03:11.268Z,6.60
2018-04-11T00:04:14.594Z,7.73
2018-04-11T00:05:18.686Z,5.33
2018-04-11T00:06:22.013Z,7.27
2018-04-11T00:07:25.338Z,6.97
2018-04-11T00:08:28.637Z,5.37
2018-04-11T00:09:31.939Z,6.07
2018-04-11T00:10:36.075Z,5.03
2018-04-11T00:11:39.371Z,4.57
2018-04-11T00:12:42.664Z,6.70
2018-04-11T00:13:45.975Z,8.13
2018-04-11T00:14:49.266Z,8.10
2018-04-11T00:15:52.584Z,7.63
2018-04-11T00:16:55.874Z,8.63
2018-04-11T00:17:59.207Z,7.20
2018-04-11T00:19:03.261Z,6.63
2018-04-11T00:20:06.564Z,7.80
2018-04-11T00:21:09.888Z,10.00
2018-04-11T00:22:13.182Z,7.70
2018-04-11T00:23:16.504Z,7.97
2018-04-11T00:24:19.881Z,11.50
2018-04-11T00:25:23.226Z,10.17
2018-04-11T00:26:27.331Z,6.43
2018-04-11T00:27:31.438Z,6.60
2018-04-11T00:28:35.493Z,8.30
2018-04-11T00:29:38.893Z,9.90
2018-04-11T00:30:42.229Z,7.00
2018-04-11T00:31:45.667Z,10.30
2018-04-11T00:32:48.946Z,9.90
2018-04-11T00:33:52.235Z,7.13
2018-04-11T00:34:55.549Z,9.10
2018-04-11T00:35:59.598Z,10.00
2018-04-11T00:37:02.921Z,8.10
2018-04-11T00:38:06.236Z,6.70
2018-04-11T00:39:09.534Z,7.20
2018-04-11T00:40:12.822Z,11.37
2018-04-11T00:41:16.169Z,8.20
2018-04-11T00:42:20.253Z,10.03
2018-04-11T00:43:23.545Z,6.40
2018-04-11T00:44:26.840Z,8.60
2018-04-11T00:45:31.486Z,7.80
2018-04-11T00:46:34.786Z,7.00
2018-04-11T00:47:38.109Z,6.10
2018-04-11T00:48:41.404Z,8.33
2018-04-11T00:49:44.702Z,10.60
2018-04-11T00:50:48.767Z,6.43
2018-04-11T00:51:52.060Z,7.30
2018-04-11T00:53:12.826Z,6.53
2018-04-11T00:54:16.157Z,6.53
2018-04-11T00:55:20.212Z,9.63
2018-04-11T00:56:23.537Z,18.40
2018-04-11T00:57:26.838Z,9.50
2018-04-11T00:58:30.925Z,10.40
2018-04-11T00:59:34.984Z,10.67
2018-04-11T01:00:38.370Z,6.17
2018-04-11T01:01:41.676Z,6.87
2018-04-11T01:02:44.978Z,8.07
2018-04-11T01:03:48.290Z,11.70
2018-04-11T01:04:52.343Z,7.77
2018-04-11T01:05:55.641Z,10.60
2018-04-11T01:06:58.929Z,7.10
2018-04-11T01:08:02.997Z,12.70
2018-04-11T01:09:07.170Z,7.67
2018-04-11T01:10:10.500Z,9.70
2018-04-11T01:11:13.785Z,8.50
2018-04-11T01:12:17.125Z,7.80
2018-04-11T01:13:20.443Z,9.13
2018-04-11T01:14:23.761Z,7.70
2018-04-11T01:15:27.863Z,9.97
2018-04-11T01:16:31.874Z,7.60
2018-04-11T01:17:35.166Z,9.43
2018-04-11T01:18:39.267Z,8.80
2018-04-11T01:19:43.353Z,9.10
2018-04-11T01:20:46.646Z,8.07
2018-04-11T01:21:50.726Z,11.57
2018-04-11T01:22:54.030Z,10.97
2018-04-11T01:23:58.097Z,10.53
2018-04-11T01:25:01.405Z,8.90
2018-04-11T01:26:04.714Z,7.60
2018-04-11T01:27:08.030Z,8.90
2018-04-11T01:28:11.367Z,7.77
2018-04-11T01:29:15.429Z,7.10
2018-04-11T01:30:18.741Z,9.23
2018-04-11T01:31:22.054Z,8.97
2018-04-11T01:32:25.361Z,12.83
2018-04-11T01:33:28.654Z,9.47
2018-04-11T01:34:31.950Z,13.70
2018-04-11T01:35:35.258Z,13.03
2018-04-11T01:36:39.341Z,9.03
2018-04-11T01:37:42.664Z,12.83
2018-04-11T01:38:46.739Z,10.60
2018-04-11T01:39:50.033Z,10.70
2018-04-11T01:40:53.358Z,10.10
2018-04-11T01:41:56.658Z,12.63
2018-04-11T01:42:59.982Z,9.20
2018-04-11T01:44:03.272Z,13.37
2018-04-11T01:45:07.369Z,9.50
2018-04-11T01:46:10.674Z,9.50
2018-04-11T01:47:13.994Z,9.23
2018-04-11T01:48:17.322Z,12.10
2018-04-11T01:49:20.650Z,9.00
2018-04-11T01:50:23.946Z,8.73
2018-04-11T01:51:27.292Z,5.80
2018-04-11T01:52:31.372Z,7.17
2018-04-11T01:53:34.653Z,7.90
2018-04-11T01:54:37.950Z,15.07
2018-04-11T01:55:41.246Z,6.17
2018-04-11T01:56:45.343Z,7.60
2018-04-11T01:57:48.634Z,7.23
2018-04-11T01:58:51.937Z,12.47
2018-04-11T01:59:55.216Z,8.57
2018-04-11T02:00:58.529Z,10.07
2018-04-11T02:02:01.851Z,7.87
2018-04-11T02:03:05.134Z,5.90
2018-04-11T02:04:08.511Z,7.10
2018-04-11T02:05:11.797Z,11.10
2018-04-11T02:06:15.102Z,6.37
2018-04-11T02:07:18.436Z,11.30
2018-04-11T02:08:21.741Z,11.63
2018-04-11T02:09:25.030Z,9.77
2018-04-11T02:10:28.342Z,8.90
2018-04-11T02:11:31.645Z,9.70
2018-04-11T02:12:34.956Z,9.00
2018-04-11T02:13:38.268Z,8.60
2018-04-11T02:14:41.559Z,9.67
2018-04-11T02:15:44.833Z,9.80
2018-04-11T02:16:48.146Z,8.50
2018-04-11T02:17:52.253Z,5.90
2018-04-11T02:18:56.321Z,8.00
2018-04-11T02:19:59.641Z,9.53
2018-04-11T02:21:02.952Z,7.73
2018-04-11T02:22:06.305Z,8.00
2018-04-11T02:23:09.633Z,6.77
2018-04-11T02:24:12.949Z,7.63
2018-04-11T02:25:16.249Z,9.33
2018-04-11T02:26:19.599Z,12.57
2018-04-11T02:27:22.911Z,6.90
2018-04-11T02:28:26.260Z,10.70
2018-04-11T02:29:30.651Z,9.73
2018-04-11T02:30:34.003Z,10.40
2018-04-11T02:31:38.082Z,10.20
2018-04-11T02:32:41.415Z,6.50
2018-04-11T02:33:44.728Z,5.00
2018-04-11T02:34:48.054Z,6.60
2018-04-11T02:35:51.348Z,6.43
2018-04-11T02:36:55.413Z,8.53
2018-04-11T02:37:58.864Z,7.00
2018-04-11T02:39:02.208Z,11.50
2018-04-11T02:40:05.515Z,7.27
2018-04-11T02:41:09.603Z,6.50
2018-04-11T02:42:13.675Z,4.00
2018-04-11T02:43:16.992Z,13.13
2018-04-11T02:44:20.354Z,5.57
2018-04-11T02:45:23.634Z,4.40
2018-04-11T02:46:26.954Z,9.80
2018-04-11T02:47:31.028Z,3.83
2018-04-11T02:48:34.330Z,3.77
2018-04-11T02:49:38.548Z,8.33
2018-04-11T02:50:41.904Z,5.63
2018-04-11T02:51:45.219Z,7.30
2018-04-11T02:52:49.349Z,6.53
2018-04-11T02:53:52.658Z,3.93
2018-04-11T02:54:55.987Z,6.70
2018-04-11T02:56:00.059Z,9.07
2018-04-11T02:57:03.359Z,7.50
2018-04-11T02:58:06.704Z,5.20
2018-04-11T02:59:10.009Z,6.73
2018-04-11T03:00:13.327Z,3.70
2018-04-11T03:01:16.660Z,7.50
2018-04-11T03:02:19.987Z,6.50
2018-04-11T03:03:24.065Z,8.27
2018-04-11T03:04:27.348Z,6.57
2018-04-11T03:05:31.465Z,4.97
2018-04-11T03:06:34.779Z,12.83
2018-04-11T03:07:38.085Z,5.30
2018-04-11T03:08:41.378Z,6.87
2018-04-11T03:09:44.717Z,4.57
2018-04-11T03:10:48.868Z,6.47
2018-04-11T03:11:52.177Z,4.83
2018-04-11T03:12:55.472Z,7.20
2018-04-11T03:13:58.769Z,4.50
2018-04-11T03:15:02.059Z,6.60
2018-04-11T03:16:06.155Z,4.03
2018-04-11T03:17:09.454Z,10.50
2018-04-11T03:18:13.529Z,5.07
2018-04-11T03:19:16.831Z,6.13
2018-04-11T03:20:20.915Z,5.87
2018-04-11T03:21:24.243Z,14.60
2018-04-11T03:22:27.521Z,5.63
2018-04-11T03:23:30.847Z,8.40
2018-04-11T03:24:34.165Z,6.10
2018-04-11T03:25:38.233Z,6.90
2018-04-11T03:26:41.576Z,6.97
2018-04-11T03:27:44.884Z,4.03
2018-04-11T03:28:48.190Z,6.17
2018-04-11T03:29:51.495Z,3.10
2018-04-11T03:30:54.802Z,4.83
2018-04-11T03:31:58.874Z,3.60
2018-04-11T03:33:02.207Z,4.43
2018-04-11T03:34:05.498Z,4.90
2018-04-11T03:35:08.791Z,5.00
2018-04-11T03:36:12.071Z,4.20
2018-04-11T03:37:15.418Z,10.77
2018-04-11T03:38:19.473Z,5.77
2018-04-11T03:39:22.794Z,7.70
2018-04-11T03:40:26.892Z,7.50
2018-04-11T03:41:30.187Z,8.60
2018-04-11T03:42:33.542Z,7.77
2018-04-11T03:43:36.835Z,4.93
2018-04-11T03:44:40.126Z,5.30
2018-04-11T03:45:43.445Z,3.50
2018-04-11T03:46:46.738Z,15.53
2018-04-11T03:47:50.042Z,4.97
2018-04-11T03:48:53.348Z,4.30
2018-04-11T03:49:56.622Z,5.90
2018-04-11T03:50:59.905Z,3.83
2018-04-11T03:52:03.226Z,3.97
2018-04-11T03:53:07.351Z,12.10
2018-04-11T03:54:10.655Z,5.53
2018-04-11T03:55:13.939Z,5.00
2018-04-11T03:56:17.238Z,9.43
2018-04-11T03:57:20.546Z,5.67
2018-04-11T03:58:23.879Z,6.57
2018-04-11T03:59:27.232Z,9.10
2018-04-11T04:00:30.544Z,7.20
2018-04-11T04:01:33.840Z,6.33
2018-04-11T04:02:37.140Z,6.67
2018-04-11T04:03:40.446Z,6.63
2018-04-11T04:04:43.744Z,5.97
2018-04-11T04:05:47.054Z,10.10
2018-04-11T04:06:50.400Z,10.27
2018-04-11T04:07:53.718Z,6.23
2018-04-11T04:08:57.803Z,6.70
2018-04-11T04:10:01.125Z,5.87
2018-04-11T04:11:04.428Z,7.43
2018-04-11T04:12:07.732Z,9.30
2018-04-11T04:13:11.080Z,8.90
2018-04-11T04:14:31.944Z,10.00
2018-04-11T04:15:52.696Z,11.93
2018-04-11T04:17:13.735Z,7.50
2018-04-11T04:18:34.618Z,6.70
2018-04-11T04:21:17.974Z,8.07
2018-04-11T04:22:22.022Z,5.27
2018-04-11T04:23:26.114Z,9.63
2018-04-11T04:24:29.447Z,7.57
2018-04-11T04:25:32.778Z,8.80
2018-04-11T04:26:36.065Z,15.00
2018-04-11T04:27:39.366Z,21.97
2018-04-11T04:28:42.688Z,17.17
2018-04-11T04:29:46.753Z,8.70
2018-04-11T04:30:50.290Z,9.60
2018-04-11T04:31:53.742Z,8.50
2018-04-11T04:32:57.100Z,13.73
2018-04-11T04:34:00.401Z,14.57
2018-04-11T04:35:03.722Z,11.43
2018-04-11T04:36:07.172Z,16.53
2018-04-11T04:37:10.563Z,12.70
2018-04-11T04:38:13.938Z,9.77
2018-04-11T04:39:17.427Z,11.23
2018-04-11T04:40:20.752Z,14.87
2018-04-11T04:41:24.078Z,12.50
2018-04-11T04:42:27.392Z,13.23
2018-04-11T04:43:30.756Z,17.77
2018-04-11T04:44:34.010Z,13.17
2018-04-11T04:45:37.299Z,17.50
2018-04-11T04:46:40.595Z,12.83
2018-04-11T04:47:43.911Z,18.43
2018-04-11T04:48:48.450Z,13.30
2018-04-11T04:49:51.732Z,10.77
2018-04-11T04:50:55.069Z,14.67
2018-04-11T04:51:58.420Z,16.87
2018-04-11T04:53:01.750Z,11.90
2018-04-11T04:54:05.104Z,12.10
2018-04-11T04:55:09.180Z,15.20
2018-04-11T04:56:12.486Z,13.80
2018-04-11T04:57:16.559Z,10.00
2018-04-11T04:58:19.905Z,13.07
2018-04-11T04:59:23.221Z,14.97
2018-04-11T05:00:26.542Z,9.90
2018-04-11T05:01:31.070Z,12.30
2018-04-11T05:02:34.405Z,9.37
2018-04-11T05:03:37.718Z,11.23
2018-04-11T05:04:41.070Z,6.23
2018-04-11T05:05:44.392Z,13.50
2018-04-11T05:06:48.492Z,8.50
2018-04-11T05:07:52.661Z,10.43
2018-04-11T05:08:55.983Z,14.33
2018-04-11T05:10:00.085Z,8.20
2018-04-11T05:11:04.163Z,11.70
2018-04-11T05:12:07.488Z,13.40
2018-04-11T05:13:11.104Z,12.27
2018-04-11T05:14:14.433Z,15.37
2018-04-11T05:15:17.747Z,12.27
2018-04-11T05:16:21.845Z,13.87
2018-04-11T05:17:25.944Z,9.67
2018-04-11T05:18:29.258Z,7.73
2018-04-11T05:19:32.622Z,11.10
2018-04-11T05:20:36.712Z,14.30
2018-04-11T05:21:40.817Z,8.77
2018-04-11T05:22:44.898Z,12.37
2018-04-11T05:23:48.250Z,10.63
2018-04-11T05:24:51.594Z,7.50
2018-04-11T05:25:55.671Z,8.67
2018-04-11T05:26:58.969Z,11.87
2018-04-11T05:28:02.279Z,10.03
2018-04-11T05:29:05.849Z,7.50
2018-04-11T05:30:09.949Z,8.27
2018-04-11T05:31:14.033Z,11.40
2018-04-11T05:32:17.393Z,12.03
2018-04-11T05:33:20.689Z,11.93
2018-04-11T05:35:39.977Z,7.60
2018-04-11T05:36:43.302Z,9.70
2018-04-11T05:37:46.645Z,9.93
2018-04-11T05:38:49.976Z,12.03
2018-04-11T05:39:53.276Z,8.23
2018-04-11T05:40:56.636Z,11.67
2018-04-11T05:41:59.932Z,8.13
2018-04-11T05:43:04.111Z,7.97
2018-04-11T05:44:08.191Z,9.23
2018-04-11T05:45:12.835Z,15.13
2018-04-11T05:46:16.150Z,11.80
2018-04-11T05:47:19.473Z,8.23
2018-04-11T05:48:22.809Z,10.80
2018-04-11T05:49:26.903Z,7.70
2018-04-11T05:50:30.202Z,9.73
2018-04-11T05:51:33.613Z,7.43
2018-04-11T05:52:36.925Z,7.00
2018-04-11T05:53:41.044Z,15.37
2018-04-11T05:54:44.353Z,7.73
2018-04-11T05:55:47.659Z,10.53
2018-04-11T05:56:51.083Z,8.40
2018-04-11T05:57:55.159Z,13.43
2018-04-11T05:58:58.475Z,18.20
2018-04-11T06:00:02.592Z,9.40
2018-04-11T06:01:06.692Z,7.87
2018-04-11T06:02:10.083Z,9.73
2018-04-11T06:03:13.391Z,9.60
2018-04-11T06:04:16.707Z,13.67
2018-04-11T06:05:20.027Z,9.07
2018-04-11T06:06:24.126Z,11.20
2018-04-11T06:07:28.300Z,7.87
2018-04-11T06:08:32.432Z,14.03
2018-04-11T06:09:36.541Z,9.00
2018-04-11T06:10:40.629Z,12.27
2018-04-11T06:11:43.964Z,7.63
2018-04-11T06:12:48.049Z,6.27
2018-04-11T06:13:51.353Z,13.83
2018-04-11T06:14:54.653Z,11.13
2018-04-11T06:15:57.971Z,12.60
2018-04-11T06:17:02.166Z,10.57
2018-04-11T06:18:05.432Z,10.77
2018-04-11T06:19:08.782Z,10.70
2018-04-11T06:20:12.085Z,17.03
2018-04-11T06:21:15.433Z,16.33
2018-04-11T06:22:20.275Z,12.10
2018-04-11T06:23:24.551Z,16.60
2018-04-11T06:24:27.878Z,18.83
2018-04-11T06:25:31.165Z,13.83
2018-04-11T06:26:34.471Z,12.20
2018-04-11T06:27:37.777Z,11.00
2018-04-11T06:28:41.553Z,20.00
2018-04-11T06:29:44.849Z,11.40
2018-04-11T06:30:48.136Z,16.70
2018-04-11T06:31:52.207Z,9.30
2018-04-11T06:32:55.510Z,16.00
2018-04-11T06:33:58.830Z,15.33
2018-04-11T06:35:02.219Z,21.47
2018-04-11T06:36:05.523Z,11.80
2018-04-11T06:37:08.830Z,17.57
2018-04-11T06:38:12.175Z,8.67
2018-04-11T06:39:15.491Z,9.70
2018-04-11T06:40:18.776Z,11.60
2018-04-11T06:41:22.078Z,21.10
2018-04-11T06:42:25.393Z,10.00
2018-04-11T06:43:29.486Z,23.43
2018-04-11T06:44:32.842Z,12.30
2018-04-11T06:45:36.168Z,11.03
2018-04-11T06:46:39.464Z,14.50
2018-04-11T06:47:42.790Z,14.83
2018-04-11T06:48:46.128Z,10.73
2018-04-11T06:49:49.524Z,11.93
2018-04-11T06:50:52.823Z,11.40
2018-04-11T06:51:56.145Z,9.87
2018-04-11T06:52:59.462Z,10.47
2018-04-11T06:54:02.794Z,13.37
2018-04-11T06:55:06.099Z,11.43
2018-04-11T06:56:09.387Z,14.37
2018-04-11T06:57:12.685Z,14.73
2018-04-11T06:58:16.025Z,8.70
2018-04-11T06:59:19.366Z,12.40
2018-04-11T07:00:23.470Z,19.07
2018-04-11T07:01:26.764Z,10.63
2018-04-11T07:02:30.066Z,8.63
2018-04-11T07:03:33.362Z,10.73
2018-04-11T07:04:36.645Z,14.27
2018-04-11T07:05:40.004Z,11.37
2018-04-11T07:06:44.027Z,10.70
2018-04-11T07:07:47.346Z,10.20
2018-04-11T07:08:50.637Z,12.33
2018-04-11T07:09:53.918Z,11.90
2018-04-11T07:10:57.235Z,11.43
2018-04-11T07:12:00.549Z,9.57
2018-04-11T07:13:03.900Z,11.20
2018-04-11T07:14:07.282Z,9.23
2018-04-11T07:15:10.530Z,12.23
2018-04-11T07:16:13.853Z,7.57
2018-04-11T07:17:17.526Z,11.70
2018-04-11T07:18:20.824Z,13.13
2018-04-11T07:19:24.922Z,13.13
2018-04-11T07:20:28.987Z,9.97
2018-04-11T07:21:32.305Z,20.03
2018-04-11T07:22:36.409Z,9.10
2018-04-11T07:23:39.740Z,10.20
2018-04-11T07:24:43.058Z,14.67
2018-04-11T07:25:46.415Z,10.23
2018-04-11T07:26:49.694Z,14.70
2018-04-11T07:27:52.990Z,11.37
2018-04-11T07:28:56.292Z,9.33
2018-04-11T07:29:59.623Z,16.57
2018-04-11T07:31:02.934Z,11.67
2018-04-11T07:32:06.235Z,13.53
2018-04-11T07:33:09.544Z,14.30
2018-04-11T07:34:12.832Z,10.87
2018-04-11T07:35:16.184Z,13.57
2018-04-11T07:36:19.545Z,10.07
2018-04-11T07:37:22.896Z,12.27
2018-04-11T07:38:26.958Z,19.13
2018-04-11T07:39:30.285Z,9.77
2018-04-11T07:40:33.602Z,10.17
2018-04-11T07:41:36.920Z,13.50
2018-04-11T07:42:40.219Z,15.10
2018-04-11T07:43:43.506Z,14.23
2018-04-11T07:44:46.829Z,15.10
2018-04-11T07:45:50.142Z,19.17
2018-04-11T07:46:53.468Z,13.13
2018-04-11T07:47:57.571Z,11.63
2018-04-11T07:49:00.880Z,11.90
2018-04-11T07:50:04.219Z,10.80
2018-04-11T07:51:07.510Z,10.80
2018-04-11T07:52:10.810Z,14.40
2018-04-11T07:53:15.065Z,13.73
2018-04-11T07:54:18.392Z,14.63
2018-04-11T07:55:21.817Z,12.10
2018-04-11T07:56:25.136Z,12.17
2018-04-11T07:57:28.447Z,18.70
2018-04-11T07:58:31.778Z,11.60
2018-04-11T07:59:35.138Z,11.37
2018-04-11T08:00:39.226Z,13.60
2018-04-11T08:01:43.354Z,9.70
2018-04-11T08:02:46.704Z,13.53
2018-04-11T08:03:50.115Z,12.70
2018-04-11T08:04:53.413Z,12.60
2018-04-11T08:05:56.722Z,12.53
2018-04-11T08:07:00.052Z,10.10
2018-04-11T08:08:04.187Z,12.83
2018-04-11T08:09:07.539Z,9.53
2018-04-11T08:10:11.642Z,12.00
2018-04-11T08:11:14.953Z,14.40
2018-04-11T08:12:18.253Z,13.57
2018-04-11T08:13:21.562Z,12.77
2018-04-11T08:14:24.894Z,18.50
2018-04-11T08:15:28.998Z,13.17
2018-04-11T08:16:33.086Z,10.43
2018-04-11T08:17:37.158Z,12.47
2018-04-11T08:18:40.488Z,10.10
2018-04-11T08:19:44.585Z,12.70
2018-04-11T08:20:47.889Z,13.47
2018-04-11T08:21:51.174Z,15.13
2018-04-11T08:22:54.471Z,12.13
2018-04-11T08:23:57.128Z,13.23
2018-04-11T08:25:00.437Z,12.73
2018-04-11T08:26:03.759Z,10.30
2018-04-11T08:27:07.055Z,9.87
2018-04-11T08:28:11.119Z,13.67
2018-04-11T08:29:14.481Z,17.40
2018-04-11T08:30:17.830Z,17.37
2018-04-11T08:31:21.892Z,12.70
2018-04-11T08:32:25.218Z,13.33
2018-04-11T08:33:28.573Z,12.00
2018-04-11T08:34:31.896Z,12.90
2018-04-11T08:35:35.966Z,13.33
2018-04-11T08:36:39.257Z,15.07
2018-04-11T08:37:42.562Z,13.60
2018-04-11T08:38:45.962Z,14.10
2018-04-11T08:39:49.270Z,16.00
2018-04-11T08:40:52.603Z,12.20
2018-04-11T08:41:56.801Z,9.73
2018-04-11T08:43:00.120Z,13.80
2018-04-11T08:44:03.421Z,9.70
2018-04-11T08:45:06.730Z,12.70
2018-04-11T08:46:10.046Z,26.70
2018-04-11T08:47:14.105Z,11.67
2018-04-11T08:48:17.402Z,11.83
2018-04-11T08:49:20.751Z,18.27
2018-04-11T08:50:24.093Z,10.90
2018-04-11T08:51:27.440Z,13.00
2018-04-11T08:52:30.779Z,23.10
2018-04-11T08:53:34.850Z,12.80
2018-04-11T08:54:38.149Z,10.33
2018-04-11T08:55:41.515Z,14.27
2018-04-11T08:56:44.838Z,10.43
2018-04-11T08:57:48.135Z,11.50
2018-04-11T08:58:51.421Z,14.00
2018-04-11T08:59:54.755Z,18.07
2018-04-11T09:00:58.053Z,14.70
2018-04-11T09:02:01.378Z,13.67
2018-04-11T09:03:04.729Z,11.40
2018-04-11T09:04:08.084Z,23.30
2018-04-11T09:05:11.548Z,12.70
2018-04-11T09:06:14.905Z,18.30
2018-04-11T09:07:19.009Z,11.23
2018-04-11T09:08:23.080Z,12.13
2018-04-11T09:09:26.388Z,10.77
2018-04-11T09:10:30.568Z,10.70
2018-04-11T09:11:33.923Z,12.47
2018-04-11T09:12:37.244Z,23.20
2018-04-11T09:13:40.589Z,13.90
2018-04-11T09:14:43.894Z,16.30
2018-04-11T09:15:47.324Z,13.20
2018-04-11T09:16:51.412Z,16.47
2018-04-11T09:17:54.737Z,11.63
2018-04-11T09:18:58.059Z,16.40
2018-04-11T09:20:01.379Z,12.00
2018-04-11T09:21:05.460Z,19.50
2018-04-11T09:22:08.774Z,12.07
2018-04-11T09:23:12.129Z,10.63
2018-04-11T09:24:15.483Z,17.43
2018-04-11T09:25:18.794Z,13.77
2018-04-11T09:26:22.903Z,23.23
2018-04-11T09:27:27.081Z,11.67
2018-04-11T09:28:30.444Z,12.60
2018-04-11T09:29:33.787Z,12.00
2018-04-11T09:30:37.872Z,11.70
2018-04-11T09:31:42.024Z,11.07
2018-04-11T09:32:46.073Z,11.33
2018-04-11T09:33:49.445Z,24.17
2018-04-11T09:34:52.840Z,11.83
2018-04-11T09:35:56.396Z,10.73
2018-04-11T09:36:59.702Z,17.00
2018-04-11T09:38:03.057Z,17.07
2018-04-11T09:39:06.499Z,15.50
2018-04-11T09:40:09.826Z,15.73
2018-04-11T09:41:12.422Z,18.27
2018-04-11T09:42:15.737Z,32.53
2018-04-11T09:43:19.060Z,15.63
2018-04-11T09:44:23.278Z,17.90
2018-04-11T09:45:26.628Z,17.23
2018-04-11T09:46:30.715Z,15.43
2018-04-11T09:47:34.017Z,20.80
2018-04-11T09:48:38.092Z,11.40
2018-04-11T09:49:41.443Z,10.50
2018-04-11T09:50:44.758Z,15.00
2018-04-11T09:51:48.090Z,12.60
2018-04-11T09:52:51.395Z,18.83
2018-04-11T09:53:54.696Z,27.63
2018-04-11T09:54:58.033Z,14.67
2018-04-11T09:56:01.335Z,18.43
2018-04-11T09:57:04.670Z,12.57
2018-04-11T09:58:07.975Z,17.00
2018-04-11T09:59:12.048Z,15.97
2018-04-11T10:00:15.389Z,19.90
2018-04-11T10:01:18.694Z,17.83
2018-04-11T10:02:24.808Z,18.50
2018-04-11T10:03:28.903Z,23.73
2018-04-11T10:04:32.988Z,20.67
2018-04-11T10:05:36.292Z,22.47
2018-04-11T10:06:40.384Z,19.30
2018-04-11T10:07:43.680Z,17.40
2018-04-11T10:08:47.768Z,18.10
2018-04-11T10:09:51.855Z,26.13
2018-04-11T10:10:55.174Z,20.87
2018-04-11T10:11:59.253Z,19.37
2018-04-11T10:13:02.586Z,25.67
2018-04-11T10:14:05.903Z,29.83
2018-04-11T10:15:09.216Z,22.93
2018-04-11T10:16:13.342Z,25.80
2018-04-11T10:17:16.675Z,24.47
2018-04-11T10:18:19.974Z,26.77
2018-04-11T10:19:23.302Z,21.77
2018-04-11T10:20:26.609Z,17.70
2018-04-11T10:21:29.938Z,20.33
2018-04-11T10:22:33.232Z,25.00
2018-04-11T10:23:36.582Z,25.50
2018-04-11T10:24:39.883Z,29.10
2018-04-11T10:25:43.195Z,19.70
2018-04-11T10:26:47.272Z,15.50
2018-04-11T10:27:50.582Z,19.60
2018-04-11T10:28:53.881Z,19.07
2018-04-11T10:29:57.242Z,20.77
2018-04-11T10:31:01.304Z,17.70
2018-04-11T10:32:04.625Z,24.97
2018-04-11T10:33:08.722Z,23.83
2018-04-11T10:34:12.808Z,23.10
2018-04-11T10:35:16.137Z,23.50
2018-04-11T10:36:19.651Z,22.13
2018-04-11T10:37:23.044Z,18.43
2018-04-11T10:38:26.352Z,18.20
2018-04-11T10:39:29.650Z,23.80
2018-04-11T10:40:33.720Z,16.50
2018-04-11T10:41:37.050Z,18.40
2018-04-11T10:42:41.150Z,20.43
2018-04-11T10:43:44.453Z,13.60
2018-04-11T10:44:47.780Z,15.30
2018-04-11T10:45:51.087Z,13.83
2018-04-11T10:46:54.392Z,18.83
2018-04-11T10:47:58.504Z,16.77
2018-04-11T10:49:01.828Z,22.57
2018-04-11T10:50:05.151Z,21.43
2018-04-11T10:51:08.469Z,22.63
2018-04-11T10:52:11.822Z,23.30
2018-04-11T10:53:15.150Z,28.43
2018-04-11T10:54:18.479Z,22.90
2018-04-11T10:55:21.802Z,23.30
2018-04-11T10:56:25.135Z,22.50
2018-04-11T10:57:28.453Z,22.77
2018-04-11T10:58:32.553Z,22.90
2018-04-11T10:59:35.886Z,23.63
2018-04-11T11:00:39.248Z,20.73
2018-04-11T11:01:42.562Z,18.07
2018-04-11T11:02:45.915Z,28.33
2018-04-11T11:03:49.253Z,29.07
2018-04-11T11:04:53.352Z,24.80
2018-04-11T11:05:56.681Z,31.20
2018-04-11T11:07:00.006Z,34.53
2018-04-11T11:08:03.311Z,37.90
2018-04-11T11:09:06.678Z,31.77
2018-04-11T11:10:09.963Z,24.20
2018-04-11T11:11:13.260Z,32.23
2018-04-11T11:12:16.572Z,30.60
2018-04-11T11:13:20.636Z,31.87
2018-04-11T11:14:23.965Z,37.23
2018-04-11T11:15:27.273Z,32.80
2018-04-11T11:16:37.277Z,32.50
2018-04-11T11:17:41.357Z,29.47
2018-04-11T11:18:44.662Z,32.97
2018-04-11T11:20:02.298Z,30.77
2018-04-11T11:21:05.658Z,25.27
2018-04-11T11:22:08.974Z,30.80
2018-04-11T11:23:12.311Z,26.13
2018-04-11T11:24:15.601Z,29.17
2018-04-11T11:25:18.925Z,31.87
2018-04-11T11:26:22.241Z,31.77
2018-04-11T11:27:25.539Z,36.70
2018-04-11T11:28:28.838Z,26.10
2018-04-11T11:29:32.162Z,27.70
2018-04-11T11:30:36.242Z,32.07
2018-04-11T11:31:39.575Z,27.83
2018-04-11T11:32:42.897Z,30.47
2018-04-11T11:33:46.247Z,31.60
2018-04-11T11:34:49.547Z,33.03
2018-04-11T11:35:52.889Z,31.63
2018-04-11T11:36:56.191Z,33.87
2018-04-11T11:37:59.493Z,41.33
2018-04-11T11:39:02.792Z,44.30
2018-04-11T11:40:06.084Z,43.17
2018-04-11T11:41:09.434Z,57.70
2018-04-11T11:42:12.736Z,37.50
2018-04-11T11:43:16.050Z,30.33
2018-04-11T11:44:19.372Z,35.93
2018-04-11T11:45:22.683Z,39.87
2018-04-11T11:46:26.051Z,31.73
2018-04-11T11:47:29.362Z,27.20
2018-04-11T11:48:32.668Z,34.40
2018-04-11T11:49:36.056Z,37.70
2018-04-11T11:50:39.359Z,44.10
2018-04-11T11:51:43.426Z,32.63
2018-04-11T11:52:46.733Z,32.50
2018-04-11T11:53:50.065Z,44.07
2018-04-11T11:54:53.394Z,46.60
2018-04-11T11:55:56.783Z,33.40
2018-04-11T11:57:00.112Z,47.33
2018-04-11T11:58:03.454Z,51.20
2018-04-11T11:59:06.796Z,37.80
2018-04-11T12:00:10.116Z,36.43
2018-04-11T12:01:13.472Z,50.57
2018-04-11T12:02:16.834Z,45.87
2018-04-11T12:03:20.158Z,46.60
2018-04-11T12:04:23.478Z,45.17
2018-04-11T12:05:27.602Z,46.97
2018-04-11T12:06:30.939Z,48.43
2018-04-11T12:07:34.251Z,52.30
2018-04-11T12:08:38.322Z,42.63
2018-04-11T12:09:41.644Z,43.70
2018-04-11T12:10:44.954Z,45.80
2018-04-11T12:11:48.298Z,46.10
2018-04-11T12:12:51.609Z,61.00
2018-04-11T12:13:54.920Z,56.83
2018-04-11T12:14:58.216Z,53.83
2018-04-11T12:16:01.530Z,54.73
2018-04-11T12:17:04.830Z,56.40
2018-04-11T12:18:08.956Z,48.67
2018-04-11T12:19:12.287Z,47.10
2018-04-11T12:20:15.587Z,47.93
2018-04-11T12:21:18.909Z,39.90
2018-04-11T12:22:22.239Z,43.93
2018-04-11T12:23:25.574Z,53.17
2018-04-11T12:24:28.878Z,56.37
2018-04-11T12:25:32.246Z,59.33
2018-04-11T12:26:35.560Z,45.67
2018-04-11T12:27:38.894Z,58.73
2018-04-11T12:28:42.230Z,59.43
2018-04-11T12:29:45.549Z,67.10
2018-04-11T12:30:48.855Z,61.93
2018-04-11T12:31:52.965Z,59.17
2018-04-11T12:32:56.271Z,57.47
2018-04-11T12:33:59.613Z,55.03
2018-04-11T12:35:03.688Z,48.17
2018-04-11T12:36:06.993Z,56.13
2018-04-11T12:37:10.326Z,47.97
2018-04-11T12:38:13.622Z,51.37
2018-04-11T12:39:16.939Z,48.47
2018-04-11T12:40:20.998Z,68.10
2018-04-11T12:41:24.341Z,49.43
2018-04-11T12:42:28.406Z,61.37
2018-04-11T12:43:31.742Z,65.03
2018-04-11T12:44:35.083Z,61.63
2018-04-11T12:45:39.012Z,56.03
2018-04-11T12:46:42.359Z,65.17
2018-04-11T12:47:45.669Z,59.57
2018-04-11T12:48:48.977Z,58.23
2018-04-11T12:49:53.056Z,63.97
2018-04-11T12:50:56.343Z,55.30
2018-04-11T12:52:00.415Z,56.03
2018-04-11T12:53:03.709Z,57.13
2018-04-11T12:54:07.014Z,58.83
2018-04-11T12:55:10.332Z,55.57
2018-04-11T12:56:13.646Z,54.93
2018-04-11T12:57:16.966Z,61.77
2018-04-11T12:58:20.267Z,68.57
2018-04-11T12:59:23.644Z,65.97
2018-04-11T13:00:27.742Z,52.93
2018-04-11T13:01:31.452Z,55.13
2018-04-11T13:02:34.848Z,55.77
2018-04-11T13:03:38.158Z,74.90
2018-04-11T13:04:41.501Z,59.67
2018-04-11T13:05:44.845Z,61.97
2018-04-11T13:06:48.174Z,59.40
2018-04-11T13:07:52.325Z,57.30
2018-04-11T13:08:55.690Z,61.40
2018-04-11T13:09:58.984Z,62.53
2018-04-11T13:11:02.331Z,59.97
2018-04-11T13:12:05.639Z,71.33
2018-04-11T13:13:08.956Z,63.97
2018-04-11T13:14:12.261Z,73.30
2018-04-11T13:15:16.349Z,62.50
2018-04-11T13:16:19.663Z,63.47
2018-04-11T13:17:23.007Z,58.30
2018-04-11T13:18:26.357Z,61.53
2018-04-11T13:19:29.617Z,58.07
2018-04-11T13:20:33.736Z,61.70
2018-04-11T13:21:37.073Z,72.30
2018-04-11T13:22:40.387Z,47.83
2018-04-11T13:23:44.483Z,54.20
2018-04-11T13:24:47.918Z,55.37
2018-04-11T13:25:51.229Z,51.67
2018-04-11T13:26:54.548Z,51.53
2018-04-11T13:27:57.875Z,56.10
2018-04-11T13:29:01.181Z,55.87
2018-04-11T13:30:04.509Z,55.97
2018-04-11T13:31:08.610Z,59.63
2018-04-11T13:32:12.743Z,67.07
2018-04-11T13:33:16.046Z,52.07
2018-04-11T13:34:20.135Z,57.50
2018-04-11T13:35:23.457Z,55.10
2018-04-11T13:36:27.568Z,55.67
2018-04-11T13:37:32.273Z,59.23
2018-04-11T13:38:35.575Z,50.60
2018-04-11T13:39:39.754Z,47.90
2018-04-11T13:40:43.077Z,45.10
2018-04-11T13:41:47.251Z,50.50
2018-04-11T13:42:50.649Z,40.13
2018-04-11T13:43:53.990Z,40.77
2018-04-11T13:44:57.324Z,47.50
2018-04-11T13:46:00.669Z,53.20
2018-04-11T13:47:04.048Z,47.30
2018-04-11T13:48:07.367Z,50.70
2018-04-11T13:49:10.713Z,39.17
2018-04-11T13:50:14.025Z,44.73